createdAt,value
2022-11-29T00:02:56.220Z,99077.72
2022-11-29T00:08:00.345Z,99075.69
2022-11-29T00:13:02.986Z,99085.75
2022-11-29T00:18:06.509Z,99074.81
2022-11-29T00:23:10.567Z,99091.50
2022-11-29T00:28:13.210Z,99091.25
2022-11-29T00:33:16.092Z,99092.06
2022-11-29T00:38:20.159Z,99090.81
2022-11-29T00:43:22.830Z,99099.06
2022-11-29T00:48:25.665Z,99091.34
2022-11-29T00:53:29.681Z,99095.72
2022-11-29T00:58:32.739Z,99094.63
2022-11-29T01:03:35.491Z,99098.28
2022-11-29T01:08:39.612Z,99096.44
2022-11-29T01:13:43.058Z,99100.34
2022-11-29T01:18:45.738Z,99091.66
2022-11-29T01:23:50.797Z,99092.28
2022-11-29T01:28:55.550Z,99096.13
2022-11-29T01:34:00.085Z,99099.03
2022-11-29T01:39:05.739Z,99090.53
2022-11-29T01:44:47.044Z,99107.00
2022-11-29T01:49:51.216Z,99109.88
2022-11-29T01:54:57.711Z,99108.22
2022-11-29T02:00:07.390Z,99121.94
2022-11-29T02:05:16.730Z,99121.75
2022-11-29T02:10:22.073Z,99122.13
2022-11-29T02:15:34.690Z,99127.25
2022-11-29T02:20:55.234Z,99124.97
2022-11-29T02:26:07.421Z,99127.00
2022-11-29T02:31:54.484Z,99135.41
2022-11-29T02:37:11.497Z,99130.25
2022-11-29T02:42:55.776Z,99133.94
2022-11-29T02:48:09.258Z,99139.22
2022-11-29T02:53:16.894Z,99145.41
2022-11-29T02:58:24.595Z,99142.94
2022-11-29T03:03:32.392Z,99147.41
2022-11-29T03:08:41.974Z,99139.38
2022-11-29T03:13:52.768Z,99148.44
2022-11-29T03:19:05.343Z,99149.44
2022-11-29T03:24:12.779Z,99156.19
2022-11-29T03:29:22.598Z,99151.84
2022-11-29T03:34:36.974Z,99170.78
2022-11-29T03:39:48.671Z,99172.97
2022-11-29T03:44:57.411Z,99178.72
2022-11-29T03:50:04.941Z,99165.56
2022-11-29T03:55:24.204Z,99174.97
2022-11-29T04:00:29.807Z,99183.63
2022-11-29T04:05:56.898Z,99187.66
2022-11-29T04:11:24.249Z,99192.19
2022-11-29T04:16:58.573Z,99191.56
2022-11-29T04:22:13.658Z,99198.09
2022-11-29T04:27:37.877Z,99199.13
2022-11-29T04:33:28.737Z,99197.28
2022-11-29T04:38:59.859Z,99207.53
2022-11-29T04:44:16.556Z,99212.38
2022-11-29T04:49:30.035Z,99208.72
2022-11-29T04:54:37.702Z,99217.91
2022-11-29T04:59:45.078Z,99226.75
2022-11-29T05:04:52.491Z,99227.78
2022-11-29T05:09:59.889Z,99233.69
2022-11-29T05:15:36.989Z,99237.56
2022-11-29T05:20:44.306Z,99250.91
2022-11-29T05:25:51.801Z,99245.94
2022-11-29T05:31:17.435Z,99249.25
2022-11-29T05:36:25.920Z,99252.28
2022-11-29T05:41:41.045Z,99258.84
2022-11-29T05:46:50.980Z,99271.38
2022-11-29T05:51:59.136Z,99274.59
2022-11-29T05:57:11.770Z,99283.44
2022-11-29T06:02:29.058Z,99285.47
2022-11-29T06:07:38.648Z,99292.00
2022-11-29T06:12:43.690Z,99296.53
2022-11-29T06:17:58.053Z,99307.84
2022-11-29T06:23:18.482Z,99317.91
2022-11-29T06:28:33.250Z,99330.59
2022-11-29T06:33:44.418Z,99330.78
2022-11-29T06:38:47.464Z,99335.66
2022-11-29T06:43:51.041Z,99333.63
2022-11-29T06:49:02.361Z,99339.31
2022-11-29T06:54:15.671Z,99343.47
2022-11-29T06:59:31.704Z,99351.97
2022-11-29T07:04:57.532Z,99347.00
2022-11-29T07:10:00.515Z,99352.50
2022-11-29T07:15:03.810Z,99364.38
2022-11-29T07:20:13.775Z,99365.19
2022-11-29T07:25:26.347Z,99375.06
2022-11-29T07:30:35.648Z,99374.41
2022-11-29T07:35:46.105Z,99378.75
2022-11-29T07:40:53.235Z,99386.09
2022-11-29T07:45:56.974Z,99375.31
2022-11-29T07:51:01.861Z,99394.28
2022-11-29T07:56:04.616Z,99396.66
2022-11-29T08:01:07.639Z,99406.16
2022-11-29T08:06:11.773Z,99402.88
2022-11-29T08:11:15.853Z,99408.00
2022-11-29T08:16:18.943Z,99407.19
2022-11-29T08:21:23.013Z,99406.81
2022-11-29T08:26:31.264Z,99423.88
2022-11-29T08:31:34.410Z,99423.88
2022-11-29T08:36:38.861Z,99433.34
2022-11-29T08:41:41.506Z,99432.88
2022-11-29T08:47:01.906Z,99441.06
2022-11-29T08:52:24.073Z,99451.91
2022-11-29T08:57:42.068Z,99452.56
2022-11-29T09:02:44.750Z,99453.09
2022-11-29T09:07:48.887Z,99459.75
2022-11-29T09:12:51.618Z,99474.75
2022-11-29T09:17:54.271Z,99473.94
2022-11-29T09:22:58.883Z,99487.09
2022-11-29T09:28:02.976Z,99490.91
2022-11-29T09:33:05.658Z,99495.22
2022-11-29T09:38:11.822Z,99498.25
2022-11-29T09:43:21.040Z,99500.56
2022-11-29T09:48:42.689Z,99505.75
2022-11-29T09:53:59.351Z,99518.91
2022-11-29T09:59:04.743Z,99515.56
2022-11-29T10:04:11.963Z,99531.44
2022-11-29T10:09:18.475Z,99527.63
2022-11-29T10:14:27.735Z,99530.09
2022-11-29T10:19:33.605Z,99536.31
2022-11-29T10:24:39.262Z,99531.94
2022-11-29T10:29:41.950Z,99536.47
2022-11-29T10:34:44.889Z,99532.69
2022-11-29T10:39:51.296Z,99522.00
2022-11-29T10:44:53.962Z,99532.69
2022-11-29T10:49:56.803Z,99527.34
2022-11-29T10:55:01.086Z,99531.66
2022-11-29T11:00:07.782Z,99522.00
2022-11-29T11:05:18.371Z,99535.16
2022-11-29T11:10:26.362Z,99529.81
2022-11-29T11:15:30.740Z,99535.66
2022-11-29T11:20:34.677Z,99530.00
2022-11-29T11:25:39.693Z,99531.66
2022-11-29T11:30:50.774Z,99524.00
2022-11-29T11:36:08.024Z,99538.00
2022-11-29T11:41:21.861Z,99534.69
2022-11-29T11:46:24.930Z,99539.38
2022-11-29T11:51:28.873Z,99542.69
2022-11-29T11:56:36.601Z,99544.91
2022-11-29T12:01:40.097Z,99544.72
2022-11-29T12:06:50.957Z,99545.06
2022-11-29T12:12:01.419Z,99545.19
2022-11-29T12:17:19.631Z,99549.16
2022-11-29T12:22:25.747Z,99547.25
2022-11-29T12:27:30.572Z,99559.66
2022-11-29T12:32:46.786Z,99560.41
2022-11-29T12:37:52.993Z,99573.50
2022-11-29T12:43:02.240Z,99580.47
2022-11-29T12:48:14.808Z,99578.69
2022-11-29T12:53:27.802Z,99578.28
2022-11-29T12:58:41.354Z,99592.66
2022-11-29T13:03:53.706Z,99597.16
2022-11-29T13:09:04.957Z,99595.97
2022-11-29T13:14:41.472Z,99598.91
2022-11-29T13:19:39.457Z,99610.13
2022-11-29T13:24:45.461Z,99614.78
2022-11-29T13:29:50.169Z,99611.31
2022-11-29T13:34:53.423Z,99610.47
2022-11-29T13:40:00.490Z,99613.34
2022-11-29T13:45:10.987Z,99607.66
2022-11-29T13:50:37.255Z,99613.94
2022-11-29T13:55:45.369Z,99611.09
2022-11-29T14:00:52.003Z,99604.72
2022-11-29T14:05:55.794Z,99611.16
2022-11-29T14:11:00.377Z,99610.75
2022-11-29T14:16:05.615Z,99614.66
2022-11-29T14:21:08.566Z,99621.47
2022-11-29T14:26:29.756Z,99628.47
2022-11-29T14:31:51.622Z,99631.25
2022-11-29T14:36:57.807Z,99635.22
2022-11-29T14:42:07.775Z,99639.38
2022-11-29T14:47:21.359Z,99638.38
2022-11-29T14:52:29.095Z,99644.59
2022-11-29T14:57:52.676Z,99644.81
2022-11-29T15:02:59.967Z,99641.88
2022-11-29T15:08:09.260Z,99645.56
2022-11-29T15:13:14.159Z,99644.09
2022-11-29T15:18:27.858Z,99645.50
2022-11-29T15:23:40.865Z,99653.53
2022-11-29T15:28:43.541Z,99652.47
2022-11-29T15:33:49.073Z,99657.16
2022-11-29T15:38:53.887Z,99658.88
2022-11-29T15:43:59.318Z,99661.34
2022-11-29T15:49:18.942Z,99665.09
2022-11-29T15:54:27.426Z,99667.56
2022-11-29T15:59:34.238Z,99668.63
2022-11-29T16:04:45.080Z,99681.41
2022-11-29T16:09:52.619Z,99679.13
2022-11-29T16:14:57.219Z,99682.78
2022-11-29T16:20:23.416Z,99684.38
2022-11-29T16:25:27.032Z,99699.22
2022-11-29T16:30:31.250Z,99686.22
2022-11-29T16:35:36.257Z,99690.16
2022-11-29T16:40:38.932Z,99690.97
2022-11-29T16:45:42.145Z,99692.81
2022-11-29T16:50:46.375Z,99695.50
2022-11-29T16:55:49.025Z,99697.81
2022-11-29T17:00:51.678Z,99703.81
2022-11-29T17:05:56.189Z,99694.53
2022-11-29T17:10:58.828Z,99700.13
2022-11-29T17:16:01.479Z,99702.81
2022-11-29T17:21:05.757Z,99702.75
2022-11-29T17:26:08.564Z,99700.25
2022-11-29T17:31:11.927Z,99704.03
2022-11-29T17:36:17.758Z,99700.16
2022-11-29T17:41:22.600Z,99699.31
2022-11-29T17:46:26.950Z,99708.84
2022-11-29T17:56:53.716Z,99724.06
2022-11-29T18:01:56.633Z,99727.56
2022-11-29T18:07:01.464Z,99730.81
2022-11-29T18:12:04.391Z,99727.22
2022-11-29T18:17:07.035Z,99732.69
2022-11-29T18:22:11.123Z,99731.94
2022-11-29T18:27:13.765Z,99738.97
2022-11-29T18:32:16.468Z,99731.59
2022-11-29T18:37:38.967Z,99741.50
2022-11-29T18:42:43.087Z,99740.81
2022-11-29T18:47:46.017Z,99734.38
2022-11-29T18:52:51.460Z,99735.13
2022-11-29T18:57:54.192Z,99737.59
2022-11-29T19:02:57.380Z,99741.94
2022-11-29T19:08:01.541Z,99747.06
2022-11-29T19:13:04.436Z,99750.78
2022-11-29T19:18:07.138Z,99755.84
2022-11-29T19:23:11.159Z,99755.06
2022-11-29T19:28:14.346Z,99751.81
2022-11-29T19:33:17.229Z,99763.38
2022-11-29T19:38:21.280Z,99755.53
2022-11-29T19:43:24.124Z,99757.34
2022-11-29T19:48:26.718Z,99762.28
2022-11-29T19:53:30.940Z,99759.38
2022-11-29T19:58:33.632Z,99765.56
2022-11-29T20:03:36.559Z,99761.72
2022-11-29T20:08:41.608Z,99766.28
2022-11-29T20:13:45.728Z,99771.72
2022-11-29T20:18:51.077Z,99779.31
2022-11-29T20:23:57.712Z,99784.50
2022-11-29T20:29:01.727Z,99785.31
2022-11-29T20:34:04.949Z,99783.22
2022-11-29T20:39:17.878Z,99784.41
2022-11-29T20:44:24.869Z,99791.66
2022-11-29T20:49:28.011Z,99788.66
2022-11-29T20:54:32.027Z,99788.91
2022-11-29T20:59:34.757Z,99796.38
2022-11-29T21:04:37.449Z,99800.75
2022-11-29T21:09:41.539Z,99806.94
2022-11-29T21:14:44.974Z,99804.00
2022-11-29T21:19:48.424Z,99800.22
2022-11-29T21:24:59.078Z,99805.34
2022-11-29T21:30:05.352Z,99804.13
2022-11-29T21:35:08.858Z,99807.72
2022-11-29T21:40:14.798Z,99798.78
2022-11-29T21:45:17.809Z,99806.81
2022-11-29T21:50:20.466Z,99809.06
2022-11-29T21:55:31.584Z,99809.47
2022-11-29T22:00:37.572Z,99812.19
2022-11-29T22:05:40.447Z,99816.19
2022-11-29T22:10:44.464Z,99812.16
2022-11-29T22:15:47.250Z,99816.47
2022-11-29T22:20:49.889Z,99809.63
2022-11-29T22:25:53.891Z,99818.88
2022-11-29T22:31:02.588Z,99815.56
2022-11-29T22:36:06.176Z,99808.09
2022-11-29T22:41:11.408Z,99807.66
2022-11-29T22:46:16.359Z,99805.03
2022-11-29T22:51:23.477Z,99795.28
2022-11-29T22:56:29.623Z,99800.06
2022-11-29T23:01:35.192Z,99807.63
2022-11-29T23:06:39.669Z,99812.19
2022-11-29T23:11:44.359Z,99812.53
2022-11-29T23:16:47.027Z,99812.28
2022-11-29T23:21:51.941Z,99824.06
2022-11-29T23:26:55.963Z,99827.31
2022-11-29T23:31:58.644Z,99837.94
2022-11-29T23:37:01.319Z,99829.19
2022-11-29T23:42:05.706Z,99833.47
2022-11-29T23:47:08.388Z,99838.47
2022-11-29T23:52:11.003Z,99829.72
2022-11-29T23:57:14.993Z,99826.25
